sensor_id;sensor_type;location;lat;lon;timestamp;P1;durP1;ratioP1;P2;durP2;ratioP2
23175;SDS011;19910;42.652;23.332;2023-02-04T00:02:24;6.65;;;3.28;;
23175;SDS011;19910;42.652;23.332;2023-02-04T00:04:51;3.97;;;2.10;;
23175;SDS011;19910;42.652;23.332;2023-02-04T00:07:18;4.10;;;2.03;;
23175;SDS011;19910;42.652;23.332;2023-02-04T00:09:45;2.85;;;1.98;;
23175;SDS011;19910;42.652;23.332;2023-02-04T00:12:13;5.85;;;2.45;;
23175;SDS011;19910;42.652;23.332;2023-02-04T00:14:40;2.22;;;1.98;;
23175;SDS011;19910;42.652;23.332;2023-02-04T00:17:06;3.83;;;2.25;;
23175;SDS011;19910;42.652;23.332;2023-02-04T00:19:35;1.38;;;1.27;;
23175;SDS011;19910;42.652;23.332;2023-02-04T00:22:02;1.92;;;1.83;;
23175;SDS011;19910;42.652;23.332;2023-02-04T00:24:29;1.85;;;1.45;;
23175;SDS011;19910;42.652;23.332;2023-02-04T00:26:56;2.38;;;1.58;;
23175;SDS011;19910;42.652;23.332;2023-02-04T00:29:24;6.38;;;2.78;;
23175;SDS011;19910;42.652;23.332;2023-02-04T00:31:54;8.98;;;1.88;;
23175;SDS011;19910;42.652;23.332;2023-02-04T00:34:20;6.75;;;2.40;;
23175;SDS011;19910;42.652;23.332;2023-02-04T00:36:47;3.78;;;2.40;;
23175;SDS011;19910;42.652;23.332;2023-02-04T00:39:14;5.28;;;1.75;;
23175;SDS011;19910;42.652;23.332;2023-02-04T00:41:41;6.85;;;2.45;;
23175;SDS011;19910;42.652;23.332;2023-02-04T00:44:07;5.80;;;2.78;;
23175;SDS011;19910;42.652;23.332;2023-02-04T00:46:35;5.28;;;2.65;;
23175;SDS011;19910;42.652;23.332;2023-02-04T00:49:02;3.78;;;2.00;;
23175;SDS011;19910;42.652;23.332;2023-02-04T00:51:30;2.35;;;2.15;;
23175;SDS011;19910;42.652;23.332;2023-02-04T00:53:57;1.88;;;1.15;;
23175;SDS011;19910;42.652;23.332;2023-02-04T00:56:24;4.40;;;2.30;;
23175;SDS011;19910;42.652;23.332;2023-02-04T00:58:50;2.70;;;2.10;;
23175;SDS011;19910;42.652;23.332;2023-02-04T01:01:17;3.38;;;1.85;;
23175;SDS011;19910;42.652;23.332;2023-02-04T01:03:45;1.77;;;1.38;;
23175;SDS011;19910;42.652;23.332;2023-02-04T01:06:12;1.42;;;1.00;;
23175;SDS011;19910;42.652;23.332;2023-02-04T01:08:39;2.03;;;1.67;;
23175;SDS011;19910;42.652;23.332;2023-02-04T01:11:05;2.10;;;1.67;;
23175;SDS011;19910;42.652;23.332;2023-02-04T01:13:32;8.35;;;2.63;;
23175;SDS011;19910;42.652;23.332;2023-02-04T01:15:59;2.95;;;2.25;;
23175;SDS011;19910;42.652;23.332;2023-02-04T01:18:26;3.85;;;2.33;;
23175;SDS011;19910;42.652;23.332;2023-02-04T01:20:54;2.67;;;2.13;;
23175;SDS011;19910;42.652;23.332;2023-02-04T01:23:20;3.60;;;1.77;;
23175;SDS011;19910;42.652;23.332;2023-02-04T01:25:47;6.45;;;3.22;;
23175;SDS011;19910;42.652;23.332;2023-02-04T01:28:14;3.65;;;2.45;;
23175;SDS011;19910;42.652;23.332;2023-02-04T01:30:40;2.47;;;2.10;;
23175;SDS011;19910;42.652;23.332;2023-02-04T01:33:07;3.63;;;1.92;;
23175;SDS011;19910;42.652;23.332;2023-02-04T01:35:34;7.80;;;2.90;;
23175;SDS011;19910;42.652;23.332;2023-02-04T01:38:02;6.75;;;2.83;;
23175;SDS011;19910;42.652;23.332;2023-02-04T01:40:29;5.68;;;3.75;;
23175;SDS011;19910;42.652;23.332;2023-02-04T01:42:56;3.75;;;2.13;;
23175;SDS011;19910;42.652;23.332;2023-02-04T01:45:23;2.83;;;1.95;;
23175;SDS011;19910;42.652;23.332;2023-02-04T01:47:50;2.35;;;1.25;;
23175;SDS011;19910;42.652;23.332;2023-02-04T01:50:17;4.68;;;2.22;;
23175;SDS011;19910;42.652;23.332;2023-02-04T01:52:44;9.07;;;2.53;;
23175;SDS011;19910;42.652;23.332;2023-02-04T01:55:14;5.40;;;2.35;;
23175;SDS011;19910;42.652;23.332;2023-02-04T01:57:42;4.15;;;1.55;;
23175;SDS011;19910;42.652;23.332;2023-02-04T02:00:12;4.68;;;2.28;;
23175;SDS011;19910;42.652;23.332;2023-02-04T02:02:43;5.63;;;3.28;;
23175;SDS011;19910;42.652;23.332;2023-02-04T02:05:12;4.60;;;2.13;;
23175;SDS011;19910;42.652;23.332;2023-02-04T02:07:41;4.70;;;2.53;;
23175;SDS011;19910;42.652;23.332;2023-02-04T02:10:09;3.50;;;1.83;;
23175;SDS011;19910;42.652;23.332;2023-02-04T02:12:40;4.65;;;2.58;;
23175;SDS011;19910;42.652;23.332;2023-02-04T02:15:11;4.03;;;2.30;;
23175;SDS011;19910;42.652;23.332;2023-02-04T02:17:38;6.72;;;3.17;;
23175;SDS011;19910;42.652;23.332;2023-02-04T02:20:06;3.40;;;2.08;;
23175;SDS011;19910;42.652;23.332;2023-02-04T02:22:34;5.55;;;2.58;;
23175;SDS011;19910;42.652;23.332;2023-02-04T02:25:10;7.05;;;4.28;;
23175;SDS011;19910;42.652;23.332;2023-02-04T02:27:38;3.13;;;1.73;;
23175;SDS011;19910;42.652;23.332;2023-02-04T02:30:06;3.08;;;1.77;;
23175;SDS011;19910;42.652;23.332;2023-02-04T02:32:36;3.78;;;2.67;;
23175;SDS011;19910;42.652;23.332;2023-02-04T02:35:04;2.95;;;1.80;;
23175;SDS011;19910;42.652;23.332;2023-02-04T02:37:33;2.88;;;1.95;;
23175;SDS011;19910;42.652;23.332;2023-02-04T02:40:00;4.30;;;2.40;;
23175;SDS011;19910;42.652;23.332;2023-02-04T02:42:28;5.07;;;2.75;;
23175;SDS011;19910;42.652;23.332;2023-02-04T02:44:56;4.78;;;2.70;;
23175;SDS011;19910;42.652;23.332;2023-02-04T02:47:23;7.22;;;3.55;;
23175;SDS011;19910;42.652;23.332;2023-02-04T02:49:52;2.85;;;2.45;;
23175;SDS011;19910;42.652;23.332;2023-02-04T02:52:20;3.88;;;2.35;;
23175;SDS011;19910;42.652;23.332;2023-02-04T02:54:47;5.63;;;3.22;;
23175;SDS011;19910;42.652;23.332;2023-02-04T02:57:15;4.30;;;2.20;;
23175;SDS011;19910;42.652;23.332;2023-02-04T02:59:44;10.25;;;4.07;;
23175;SDS011;19910;42.652;23.332;2023-02-04T03:02:11;5.60;;;3.85;;
23175;SDS011;19910;42.652;23.332;2023-02-04T03:04:41;4.55;;;2.88;;
23175;SDS011;19910;42.652;23.332;2023-02-04T03:07:11;3.15;;;2.05;;
23175;SDS011;19910;42.652;23.332;2023-02-04T03:09:39;9.32;;;3.05;;
23175;SDS011;19910;42.652;23.332;2023-02-04T03:12:06;4.82;;;3.40;;
23175;SDS011;19910;42.652;23.332;2023-02-04T03:14:32;3.35;;;1.92;;
23175;SDS011;19910;42.652;23.332;2023-02-04T03:17:04;5.63;;;3.05;;
23175;SDS011;19910;42.652;23.332;2023-02-04T03:19:37;3.20;;;2.03;;
23175;SDS011;19910;42.652;23.332;2023-02-04T03:22:04;4.80;;;3.00;;
23175;SDS011;19910;42.652;23.332;2023-02-04T03:24:33;6.88;;;2.67;;
23175;SDS011;19910;42.652;23.332;2023-02-04T03:27:01;3.30;;;1.98;;
23175;SDS011;19910;42.652;23.332;2023-02-04T03:29:27;4.05;;;2.35;;
23175;SDS011;19910;42.652;23.332;2023-02-04T03:31:54;3.30;;;2.17;;
23175;SDS011;19910;42.652;23.332;2023-02-04T03:34:25;3.05;;;1.65;;
23175;SDS011;19910;42.652;23.332;2023-02-04T03:36:52;2.75;;;1.83;;
23175;SDS011;19910;42.652;23.332;2023-02-04T03:39:19;3.28;;;2.05;;
23175;SDS011;19910;42.652;23.332;2023-02-04T03:41:46;1.65;;;1.30;;
23175;SDS011;19910;42.652;23.332;2023-02-04T03:44:15;3.55;;;2.05;;
23175;SDS011;19910;42.652;23.332;2023-02-04T03:46:42;4.95;;;2.58;;
23175;SDS011;19910;42.652;23.332;2023-02-04T03:49:09;2.28;;;1.50;;
23175;SDS011;19910;42.652;23.332;2023-02-04T03:51:37;5.50;;;2.55;;
23175;SDS011;19910;42.652;23.332;2023-02-04T03:54:05;5.93;;;1.83;;
23175;SDS011;19910;42.652;23.332;2023-02-04T03:56:32;2.58;;;1.95;;
23175;SDS011;19910;42.652;23.332;2023-02-04T03:58:59;2.97;;;2.10;;
23175;SDS011;19910;42.652;23.332;2023-02-04T04:01:25;4.43;;;2.05;;
23175;SDS011;19910;42.652;23.332;2023-02-04T04:03:52;7.97;;;1.70;;
23175;SDS011;19910;42.652;23.332;2023-02-04T04:06:19;4.78;;;2.70;;
23175;SDS011;19910;42.652;23.332;2023-02-04T04:08:47;3.13;;;1.48;;
23175;SDS011;19910;42.652;23.332;2023-02-04T04:11:14;4.72;;;2.08;;
23175;SDS011;19910;42.652;23.332;2023-02-04T04:13:40;3.03;;;2.22;;
23175;SDS011;19910;42.652;23.332;2023-02-04T04:16:07;3.22;;;1.60;;
23175;SDS011;19910;42.652;23.332;2023-02-04T04:18:34;3.97;;;2.10;;
23175;SDS011;19910;42.652;23.332;2023-02-04T04:21:01;3.00;;;1.98;;
23175;SDS011;19910;42.652;23.332;2023-02-04T04:23:28;4.15;;;2.15;;
23175;SDS011;19910;42.652;23.332;2023-02-04T04:25:56;2.65;;;1.55;;
23175;SDS011;19910;42.652;23.332;2023-02-04T04:28:25;8.50;;;2.38;;
23175;SDS011;19910;42.652;23.332;2023-02-04T04:30:54;4.82;;;2.40;;
23175;SDS011;19910;42.652;23.332;2023-02-04T04:33:21;4.78;;;1.65;;
23175;SDS011;19910;42.652;23.332;2023-02-04T04:35:48;3.13;;;1.80;;
23175;SDS011;19910;42.652;23.332;2023-02-04T04:38:17;4.45;;;2.00;;
23175;SDS011;19910;42.652;23.332;2023-02-04T04:40:44;10.10;;;2.10;;
23175;SDS011;19910;42.652;23.332;2023-02-04T04:43:12;5.50;;;3.15;;
23175;SDS011;19910;42.652;23.332;2023-02-04T04:45:43;3.97;;;1.90;;
23175;SDS011;19910;42.652;23.332;2023-02-04T04:48:10;3.50;;;2.03;;
23175;SDS011;19910;42.652;23.332;2023-02-04T04:50:37;5.45;;;2.75;;
23175;SDS011;19910;42.652;23.332;2023-02-04T04:53:03;7.25;;;2.65;;
23175;SDS011;19910;42.652;23.332;2023-02-04T04:55:35;4.22;;;2.10;;
23175;SDS011;19910;42.652;23.332;2023-02-04T04:58:01;4.75;;;2.80;;
23175;SDS011;19910;42.652;23.332;2023-02-04T05:00:30;6.15;;;2.28;;
23175;SDS011;19910;42.652;23.332;2023-02-04T05:02:57;6.32;;;1.95;;
23175;SDS011;19910;42.652;23.332;2023-02-04T05:05:23;5.10;;;2.88;;
23175;SDS011;19910;42.652;23.332;2023-02-04T05:07:50;6.35;;;2.60;;
23175;SDS011;19910;42.652;23.332;2023-02-04T05:10:18;2.95;;;1.63;;
23175;SDS011;19910;42.652;23.332;2023-02-04T05:12:45;1.10;;;0.70;;
23175;SDS011;19910;42.652;23.332;2023-02-04T05:15:12;4.38;;;1.05;;
23175;SDS011;19910;42.652;23.332;2023-02-04T05:17:40;0.73;;;0.63;;
23175;SDS011;19910;42.652;23.332;2023-02-04T05:20:07;0.43;;;0.43;;
23175;SDS011;19910;42.652;23.332;2023-02-04T05:22:34;0.50;;;0.50;;
23175;SDS011;19910;42.652;23.332;2023-02-04T05:25:01;1.45;;;0.60;;
23175;SDS011;19910;42.652;23.332;2023-02-04T05:27:28;0.55;;;0.43;;
23175;SDS011;19910;42.652;23.332;2023-02-04T05:29:55;0.57;;;0.50;;
23175;SDS011;19910;42.652;23.332;2023-02-04T05:32:21;0.55;;;0.40;;
23175;SDS011;19910;42.652;23.332;2023-02-04T05:34:49;1.65;;;0.88;;
23175;SDS011;19910;42.652;23.332;2023-02-04T05:37:16;0.85;;;0.70;;
23175;SDS011;19910;42.652;23.332;2023-02-04T05:39:45;0.82;;;0.50;;
23175;SDS011;19910;42.652;23.332;2023-02-04T05:42:11;0.88;;;0.80;;
23175;SDS011;19910;42.652;23.332;2023-02-04T05:44:38;2.05;;;0.93;;
23175;SDS011;19910;42.652;23.332;2023-02-04T05:47:05;0.73;;;0.63;;
23175;SDS011;19910;42.652;23.332;2023-02-04T05:49:32;0.40;;;0.40;;
23175;SDS011;19910;42.652;23.332;2023-02-04T05:52:00;0.63;;;0.40;;
23175;SDS011;19910;42.652;23.332;2023-02-04T05:54:26;0.63;;;0.63;;
23175;SDS011;19910;42.652;23.332;2023-02-04T05:56:53;2.30;;;0.50;;
23175;SDS011;19910;42.652;23.332;2023-02-04T05:59:20;0.65;;;0.65;;
23175;SDS011;19910;42.652;23.332;2023-02-04T06:01:47;0.40;;;0.40;;
23175;SDS011;19910;42.652;23.332;2023-02-04T06:04:13;1.60;;;0.73;;
23175;SDS011;19910;42.652;23.332;2023-02-04T06:06:40;1.35;;;0.80;;
23175;SDS011;19910;42.652;23.332;2023-02-04T06:09:08;0.50;;;0.50;;
23175;SDS011;19910;42.652;23.332;2023-02-04T06:11:35;0.60;;;0.60;;
23175;SDS011;19910;42.652;23.332;2023-02-04T06:14:02;0.90;;;0.52;;
23175;SDS011;19910;42.652;23.332;2023-02-04T06:16:29;0.50;;;0.50;;
23175;SDS011;19910;42.652;23.332;2023-02-04T06:18:56;0.38;;;0.38;;
23175;SDS011;19910;42.652;23.332;2023-02-04T06:21:23;0.73;;;0.70;;
23175;SDS011;19910;42.652;23.332;2023-02-04T06:23:49;0.30;;;0.30;;
23175;SDS011;19910;42.652;23.332;2023-02-04T06:26:17;0.40;;;0.40;;
23175;SDS011;19910;42.652;23.332;2023-02-04T06:28:44;0.70;;;0.57;;
23175;SDS011;19910;42.652;23.332;2023-02-04T06:31:11;1.40;;;0.98;;
23175;SDS011;19910;42.652;23.332;2023-02-04T06:33:37;1.30;;;1.02;;
23175;SDS011;19910;42.652;23.332;2023-02-04T06:36:04;0.70;;;0.50;;
23175;SDS011;19910;42.652;23.332;2023-02-04T06:38:31;0.38;;;0.35;;
23175;SDS011;19910;42.652;23.332;2023-02-04T06:40:58;0.60;;;0.40;;
23175;SDS011;19910;42.652;23.332;2023-02-04T06:43:26;0.70;;;0.50;;
23175;SDS011;19910;42.652;23.332;2023-02-04T06:45:53;1.08;;;0.70;;
23175;SDS011;19910;42.652;23.332;2023-02-04T06:48:20;0.52;;;0.52;;
23175;SDS011;19910;42.652;23.332;2023-02-04T06:50:47;2.05;;;0.70;;
23175;SDS011;19910;42.652;23.332;2023-02-04T06:53:13;0.50;;;0.50;;
23175;SDS011;19910;42.652;23.332;2023-02-04T06:55:43;1.90;;;0.90;;
23175;SDS011;19910;42.652;23.332;2023-02-04T06:58:09;0.50;;;0.50;;
23175;SDS011;19910;42.652;23.332;2023-02-04T07:00:38;0.50;;;0.50;;
23175;SDS011;19910;42.652;23.332;2023-02-04T07:03:04;1.83;;;0.70;;
23175;SDS011;19910;42.652;23.332;2023-02-04T07:05:32;1.30;;;0.60;;
23175;SDS011;19910;42.652;23.332;2023-02-04T07:07:59;1.27;;;1.10;;
23175;SDS011;19910;42.652;23.332;2023-02-04T07:10:26;2.55;;;1.52;;
23175;SDS011;19910;42.652;23.332;2023-02-04T07:12:52;1.75;;;1.02;;
23175;SDS011;19910;42.652;23.332;2023-02-04T07:15:19;1.15;;;1.05;;
23175;SDS011;19910;42.652;23.332;2023-02-04T07:17:47;1.58;;;0.70;;
23175;SDS011;19910;42.652;23.332;2023-02-04T07:20:14;1.02;;;0.88;;
23175;SDS011;19910;42.652;23.332;2023-02-04T07:22:41;0.60;;;0.60;;
23175;SDS011;19910;42.652;23.332;2023-02-04T07:25:08;2.70;;;1.23;;
23175;SDS011;19910;42.652;23.332;2023-02-04T07:27:39;0.85;;;0.80;;
23175;SDS011;19910;42.652;23.332;2023-02-04T07:30:06;0.68;;;0.68;;
23175;SDS011;19910;42.652;23.332;2023-02-04T07:32:34;1.38;;;1.05;;
23175;SDS011;19910;42.652;23.332;2023-02-04T07:35:02;0.63;;;0.63;;
23175;SDS011;19910;42.652;23.332;2023-02-04T07:37:29;0.43;;;0.43;;
23175;SDS011;19910;42.652;23.332;2023-02-04T07:39:56;0.47;;;0.45;;
23175;SDS011;19910;42.652;23.332;2023-02-04T07:42:22;1.05;;;0.85;;
23175;SDS011;19910;42.652;23.332;2023-02-04T07:44:49;4.05;;;1.00;;
23175;SDS011;19910;42.652;23.332;2023-02-04T07:47:16;1.33;;;0.50;;
23175;SDS011;19910;42.652;23.332;2023-02-04T07:49:43;0.57;;;0.57;;
23175;SDS011;19910;42.652;23.332;2023-02-04T07:52:11;1.20;;;0.73;;
23175;SDS011;19910;42.652;23.332;2023-02-04T07:54:38;3.28;;;0.80;;
23175;SDS011;19910;42.652;23.332;2023-02-04T07:57:04;1.95;;;1.45;;
23175;SDS011;19910;42.652;23.332;2023-02-04T07:59:31;1.50;;;0.90;;
23175;SDS011;19910;42.652;23.332;2023-02-04T08:01:58;0.50;;;0.50;;
23175;SDS011;19910;42.652;23.332;2023-02-04T08:04:26;2.10;;;0.98;;
23175;SDS011;19910;42.652;23.332;2023-02-04T08:06:52;0.98;;;0.77;;
23175;SDS011;19910;42.652;23.332;2023-02-04T08:09:20;0.75;;;0.73;;
23175;SDS011;19910;42.652;23.332;2023-02-04T08:11:48;0.63;;;0.63;;
23175;SDS011;19910;42.652;23.332;2023-02-04T08:14:14;0.93;;;0.80;;
23175;SDS011;19910;42.652;23.332;2023-02-04T08:16:41;2.30;;;0.50;;
23175;SDS011;19910;42.652;23.332;2023-02-04T08:19:08;2.35;;;0.60;;
23175;SDS011;19910;42.652;23.332;2023-02-04T08:21:34;1.70;;;1.00;;
23175;SDS011;19910;42.652;23.332;2023-02-04T08:24:01;1.73;;;1.00;;
23175;SDS011;19910;42.652;23.332;2023-02-04T08:26:29;0.50;;;0.50;;
23175;SDS011;19910;42.652;23.332;2023-02-04T08:28:56;2.28;;;1.02;;
23175;SDS011;19910;42.652;23.332;2023-02-04T08:31:23;0.63;;;0.63;;
23175;SDS011;19910;42.652;23.332;2023-02-04T08:33:49;0.60;;;0.60;;
23175;SDS011;19910;42.652;23.332;2023-02-04T08:36:16;0.93;;;0.57;;
23175;SDS011;19910;42.652;23.332;2023-02-04T08:38:43;0.65;;;0.57;;
23175;SDS011;19910;42.652;23.332;2023-02-04T08:41:11;3.15;;;0.98;;
23175;SDS011;19910;42.652;23.332;2023-02-04T08:43:39;2.28;;;0.68;;
23175;SDS011;19910;42.652;23.332;2023-02-04T08:46:06;1.65;;;0.70;;
23175;SDS011;19910;42.652;23.332;2023-02-04T08:48:33;1.20;;;0.80;;
23175;SDS011;19910;42.652;23.332;2023-02-04T08:50:59;0.90;;;0.60;;
23175;SDS011;19910;42.652;23.332;2023-02-04T08:53:26;0.93;;;0.60;;
23175;SDS011;19910;42.652;23.332;2023-02-04T08:55:53;0.57;;;0.47;;
23175;SDS011;19910;42.652;23.332;2023-02-04T08:58:20;0.65;;;0.60;;
23175;SDS011;19910;42.652;23.332;2023-02-04T09:00:48;0.82;;;0.60;;
23175;SDS011;19910;42.652;23.332;2023-02-04T09:03:14;0.43;;;0.43;;
23175;SDS011;19910;42.652;23.332;2023-02-04T09:05:41;1.20;;;0.82;;
23175;SDS011;19910;42.652;23.332;2023-02-04T09:08:08;0.45;;;0.45;;
23175;SDS011;19910;42.652;23.332;2023-02-04T09:10:35;0.43;;;0.43;;
23175;SDS011;19910;42.652;23.332;2023-02-04T09:13:02;0.50;;;0.50;;
23175;SDS011;19910;42.652;23.332;2023-02-04T09:15:29;1.50;;;0.57;;
23175;SDS011;19910;42.652;23.332;2023-02-04T09:17:57;0.40;;;0.40;;
23175;SDS011;19910;42.652;23.332;2023-02-04T09:20:28;1.48;;;0.50;;
23175;SDS011;19910;42.652;23.332;2023-02-04T09:22:55;1.05;;;0.50;;
23175;SDS011;19910;42.652;23.332;2023-02-04T09:25:22;0.68;;;0.50;;
23175;SDS011;19910;42.652;23.332;2023-02-04T09:27:49;1.50;;;0.50;;
23175;SDS011;19910;42.652;23.332;2023-02-04T09:30:16;1.20;;;0.60;;
23175;SDS011;19910;42.652;23.332;2023-02-04T09:32:43;1.35;;;0.70;;
23175;SDS011;19910;42.652;23.332;2023-02-04T09:35:11;1.90;;;1.08;;
23175;SDS011;19910;42.652;23.332;2023-02-04T09:37:37;1.40;;;0.60;;
23175;SDS011;19910;42.652;23.332;2023-02-04T09:40:05;1.20;;;0.77;;
23175;SDS011;19910;42.652;23.332;2023-02-04T09:42:32;1.30;;;0.88;;
23175;SDS011;19910;42.652;23.332;2023-02-04T09:44:58;1.20;;;0.88;;
23175;SDS011;19910;42.652;23.332;2023-02-04T09:47:27;1.77;;;0.82;;
23175;SDS011;19910;42.652;23.332;2023-02-04T09:49:54;0.80;;;0.80;;
23175;SDS011;19910;42.652;23.332;2023-02-04T09:52:23;1.88;;;1.15;;
23175;SDS011;19910;42.652;23.332;2023-02-04T09:54:52;2.42;;;1.08;;
23175;SDS011;19910;42.652;23.332;2023-02-04T09:57:19;8.90;;;1.73;;
23175;SDS011;19910;42.652;23.332;2023-02-04T09:59:46;3.65;;;1.60;;
23175;SDS011;19910;42.652;23.332;2023-02-04T10:02:17;1.25;;;0.90;;
23175;SDS011;19910;42.652;23.332;2023-02-04T10:04:47;1.30;;;0.90;;
23175;SDS011;19910;42.652;23.332;2023-02-04T10:07:14;0.45;;;0.45;;
23175;SDS011;19910;42.652;23.332;2023-02-04T10:09:47;0.50;;;0.50;;
23175;SDS011;19910;42.652;23.332;2023-02-04T10:12:15;0.88;;;0.65;;
23175;SDS011;19910;42.652;23.332;2023-02-04T10:14:42;0.98;;;0.43;;
23175;SDS011;19910;42.652;23.332;2023-02-04T10:17:09;0.52;;;0.52;;
23175;SDS011;19910;42.652;23.332;2023-02-04T10:19:38;0.70;;;0.70;;
23175;SDS011;19910;42.652;23.332;2023-02-04T10:22:09;0.38;;;0.38;;
23175;SDS011;19910;42.652;23.332;2023-02-04T10:24:42;0.77;;;0.57;;
23175;SDS011;19910;42.652;23.332;2023-02-04T10:27:11;0.98;;;0.60;;
23175;SDS011;19910;42.652;23.332;2023-02-04T10:29:40;0.40;;;0.40;;
23175;SDS011;19910;42.652;23.332;2023-02-04T10:34:55;0.40;;;0.40;;
23175;SDS011;19910;42.652;23.332;2023-02-04T10:37:23;0.65;;;0.65;;
23175;SDS011;19910;42.652;23.332;2023-02-04T10:39:50;0.82;;;0.50;;
23175;SDS011;19910;42.652;23.332;2023-02-04T10:42:21;0.98;;;0.55;;
23175;SDS011;19910;42.652;23.332;2023-02-04T10:44:49;1.35;;;0.63;;
23175;SDS011;19910;42.652;23.332;2023-02-04T10:47:17;0.40;;;0.40;;
23175;SDS011;19910;42.652;23.332;2023-02-04T10:49:52;0.40;;;0.40;;
23175;SDS011;19910;42.652;23.332;2023-02-04T10:52:21;0.52;;;0.52;;
23175;SDS011;19910;42.652;23.332;2023-02-04T10:54:51;0.52;;;0.50;;
23175;SDS011;19910;42.652;23.332;2023-02-04T10:57:20;0.85;;;0.52;;
23175;SDS011;19910;42.652;23.332;2023-02-04T10:59:48;0.30;;;0.30;;
23175;SDS011;19910;42.652;23.332;2023-02-04T11:02:39;1.08;;;0.50;;
23175;SDS011;19910;42.652;23.332;2023-02-04T11:05:13;0.65;;;0.65;;
23175;SDS011;19910;42.652;23.332;2023-02-04T11:07:41;0.60;;;0.60;;
23175;SDS011;19910;42.652;23.332;2023-02-04T11:10:12;1.17;;;0.85;;
23175;SDS011;19910;42.652;23.332;2023-02-04T11:12:43;0.68;;;0.63;;
23175;SDS011;19910;42.652;23.332;2023-02-04T11:18:05;0.73;;;0.63;;
23175;SDS011;19910;42.652;23.332;2023-02-04T11:20:33;0.77;;;0.77;;
23175;SDS011;19910;42.652;23.332;2023-02-04T11:23:28;1.98;;;0.70;;
23175;SDS011;19910;42.652;23.332;2023-02-04T11:26:00;0.30;;;0.30;;
23175;SDS011;19910;42.652;23.332;2023-02-04T11:28:37;0.73;;;0.60;;
23175;SDS011;19910;42.652;23.332;2023-02-04T11:31:13;0.45;;;0.45;;
23175;SDS011;19910;42.652;23.332;2023-02-04T11:34:01;0.85;;;0.75;;
23175;SDS011;19910;42.652;23.332;2023-02-04T11:36:33;0.68;;;0.60;;
23175;SDS011;19910;42.652;23.332;2023-02-04T11:39:05;0.50;;;0.50;;
23175;SDS011;19910;42.652;23.332;2023-02-04T11:41:41;0.60;;;0.60;;
23175;SDS011;19910;42.652;23.332;2023-02-04T11:44:11;1.58;;;0.90;;
23175;SDS011;19910;42.652;23.332;2023-02-04T11:46:39;0.75;;;0.75;;
23175;SDS011;19910;42.652;23.332;2023-02-04T11:49:08;0.77;;;0.75;;
23175;SDS011;19910;42.652;23.332;2023-02-04T11:51:42;0.68;;;0.60;;
23175;SDS011;19910;42.652;23.332;2023-02-04T11:54:12;0.50;;;0.50;;
23175;SDS011;19910;42.652;23.332;2023-02-04T11:56:40;1.13;;;0.88;;
23175;SDS011;19910;42.652;23.332;2023-02-04T11:59:08;0.88;;;0.85;;
23175;SDS011;19910;42.652;23.332;2023-02-04T12:01:37;1.38;;;0.82;;
23175;SDS011;19910;42.652;23.332;2023-02-04T12:04:05;0.93;;;0.73;;
23175;SDS011;19910;42.652;23.332;2023-02-04T12:06:34;0.88;;;0.63;;
23175;SDS011;19910;42.652;23.332;2023-02-04T12:09:05;1.88;;;0.90;;
23175;SDS011;19910;42.652;23.332;2023-02-04T12:11:32;1.02;;;0.80;;
23175;SDS011;19910;42.652;23.332;2023-02-04T12:14:05;0.90;;;0.80;;
23175;SDS011;19910;42.652;23.332;2023-02-04T12:16:41;1.60;;;0.80;;
23175;SDS011;19910;42.652;23.332;2023-02-04T12:19:10;0.80;;;0.70;;
23175;SDS011;19910;42.652;23.332;2023-02-04T12:21:37;0.82;;;0.82;;
23175;SDS011;19910;42.652;23.332;2023-02-04T12:24:06;0.43;;;0.43;;
23175;SDS011;19910;42.652;23.332;2023-02-04T12:26:33;0.70;;;0.65;;
23175;SDS011;19910;42.652;23.332;2023-02-04T12:29:00;2.95;;;1.05;;
23175;SDS011;19910;42.652;23.332;2023-02-04T12:31:29;1.25;;;0.90;;
23175;SDS011;19910;42.652;23.332;2023-02-04T12:33:58;0.85;;;0.70;;
23175;SDS011;19910;42.652;23.332;2023-02-04T12:36:25;2.08;;;0.80;;
23175;SDS011;19910;42.652;23.332;2023-02-04T12:38:53;1.30;;;0.98;;
23175;SDS011;19910;42.652;23.332;2023-02-04T12:41:22;0.98;;;0.77;;
23175;SDS011;19910;42.652;23.332;2023-02-04T12:43:49;1.45;;;0.98;;
23175;SDS011;19910;42.652;23.332;2023-02-04T12:46:16;1.25;;;0.60;;
23175;SDS011;19910;42.652;23.332;2023-02-04T12:48:43;1.25;;;0.95;;
23175;SDS011;19910;42.652;23.332;2023-02-04T12:51:11;1.33;;;0.93;;
23175;SDS011;19910;42.652;23.332;2023-02-04T12:53:38;1.45;;;1.08;;
23175;SDS011;19910;42.652;23.332;2023-02-04T12:56:05;0.95;;;0.70;;
23175;SDS011;19910;42.652;23.332;2023-02-04T12:58:31;6.63;;;1.27;;
23175;SDS011;19910;42.652;23.332;2023-02-04T13:00:58;0.73;;;0.60;;
23175;SDS011;19910;42.652;23.332;2023-02-04T13:03:25;0.30;;;0.30;;
23175;SDS011;19910;42.652;23.332;2023-02-04T13:05:52;1.98;;;0.88;;
23175;SDS011;19910;42.652;23.332;2023-02-04T13:08:20;0.60;;;0.60;;
23175;SDS011;19910;42.652;23.332;2023-02-04T13:10:47;0.65;;;0.60;;
23175;SDS011;19910;42.652;23.332;2023-02-04T13:13:16;1.10;;;0.50;;
23175;SDS011;19910;42.652;23.332;2023-02-04T13:15:43;0.57;;;0.57;;
23175;SDS011;19910;42.652;23.332;2023-02-04T13:18:10;0.50;;;0.50;;
23175;SDS011;19910;42.652;23.332;2023-02-04T13:20:37;0.40;;;0.40;;
23175;SDS011;19910;42.652;23.332;2023-02-04T13:23:03;0.40;;;0.40;;
23175;SDS011;19910;42.652;23.332;2023-02-04T13:25:32;0.40;;;0.40;;
23175;SDS011;19910;42.652;23.332;2023-02-04T13:27:59;0.43;;;0.40;;
23175;SDS011;19910;42.652;23.332;2023-02-04T13:30:25;0.22;;;0.22;;
23175;SDS011;19910;42.652;23.332;2023-02-04T13:32:52;0.75;;;0.65;;
23175;SDS011;19910;42.652;23.332;2023-02-04T13:35:19;1.25;;;0.70;;
23175;SDS011;19910;42.652;23.332;2023-02-04T13:37:46;0.40;;;0.40;;
23175;SDS011;19910;42.652;23.332;2023-02-04T13:40:12;0.40;;;0.40;;
23175;SDS011;19910;42.652;23.332;2023-02-04T13:42:41;0.45;;;0.40;;
23175;SDS011;19910;42.652;23.332;2023-02-04T13:45:09;0.30;;;0.30;;
23175;SDS011;19910;42.652;23.332;2023-02-04T13:47:37;0.40;;;0.40;;
23175;SDS011;19910;42.652;23.332;2023-02-04T13:50:04;0.50;;;0.50;;
23175;SDS011;19910;42.652;23.332;2023-02-04T13:52:32;0.57;;;0.50;;
23175;SDS011;19910;42.652;23.332;2023-02-04T13:54:59;0.60;;;0.45;;
23175;SDS011;19910;42.652;23.332;2023-02-04T13:57:25;1.13;;;0.70;;
23175;SDS011;19910;42.652;23.332;2023-02-04T13:59:55;1.60;;;0.85;;
23175;SDS011;19910;42.652;23.332;2023-02-04T14:02:22;0.50;;;0.50;;
23175;SDS011;19910;42.652;23.332;2023-02-04T14:04:49;0.50;;;0.50;;
23175;SDS011;19910;42.652;23.332;2023-02-04T14:07:16;0.65;;;0.60;;
23175;SDS011;19910;42.652;23.332;2023-02-04T14:09:43;1.05;;;0.85;;
23175;SDS011;19910;42.652;23.332;2023-02-04T14:12:12;1.15;;;0.60;;
23175;SDS011;19910;42.652;23.332;2023-02-04T14:14:39;3.45;;;0.90;;
23175;SDS011;19910;42.652;23.332;2023-02-04T14:17:07;10.13;;;1.13;;
23175;SDS011;19910;42.652;23.332;2023-02-04T14:19:33;0.50;;;0.50;;
23175;SDS011;19910;42.652;23.332;2023-02-04T14:22:00;2.25;;;1.00;;
23175;SDS011;19910;42.652;23.332;2023-02-04T14:24:27;0.88;;;0.88;;
23175;SDS011;19910;42.652;23.332;2023-02-04T14:26:54;0.70;;;0.57;;
23175;SDS011;19910;42.652;23.332;2023-02-04T14:29:21;0.70;;;0.70;;
23175;SDS011;19910;42.652;23.332;2023-02-04T14:31:48;1.85;;;0.77;;
23175;SDS011;19910;42.652;23.332;2023-02-04T14:34:16;0.80;;;0.80;;
23175;SDS011;19910;42.652;23.332;2023-02-04T14:36:42;0.50;;;0.50;;
23175;SDS011;19910;42.652;23.332;2023-02-04T14:39:09;0.50;;;0.50;;
23175;SDS011;19910;42.652;23.332;2023-02-04T14:41:36;0.63;;;0.60;;
23175;SDS011;19910;42.652;23.332;2023-02-04T14:44:03;0.65;;;0.63;;